Time;durP1;ratioP1;P1;durP2;ratioP2;P2;SDS_P1;SDS_P2;PMS_P1;PMS_P2;Temp;Humidity;BMP_temperature;BMP_pressure;BME280_temperature;BME280_humidity;BME280_pressure;Samples;Min_cycle;Max_cycle;Signal;HPM_P1;HPM_P2
2023/03/06 00:00:24;;;;;;;15.57;6.13;;;;;;;10.65;50.48;93571.84;5040920;28;20071;-87
2023/03/06 00:02:50;;;;;;;15.18;6.43;;;;;;;10.37;51.25;93580.34;5057704;28;20035;-87
2023/03/06 00:05:15;;;;;;;21.00;5.78;;;;;;;10.52;51.12;93581.19;5058030;28;20025;-87
2023/03/06 00:07:41;;;;;;;23.63;7.05;;;;;;;10.55;51.31;93567.56;5058617;28;20052;-87
2023/03/06 00:10:07;;;;;;;13.20;5.90;;;;;;;10.49;51.60;93572.09;5057265;28;20035;-86
2023/03/06 00:12:33;;;;;;;14.68;5.47;;;;;;;10.26;51.66;93569.25;5057064;28;20048;-87
2023/03/06 00:14:58;;;;;;;16.90;6.80;;;;;;;10.40;52.19;93582.41;5040947;28;20017;-86
2023/03/06 00:17:24;;;;;;;19.85;5.80;;;;;;;10.16;52.82;93577.22;5057230;28;20031;-86
2023/03/06 00:19:49;;;;;;;15.15;6.55;;;;;;;10.49;52.17;93574.72;5056875;28;20028;-86
2023/03/06 00:22:15;;;;;;;22.40;6.38;;;;;;;10.33;52.80;93569.66;5043360;28;20028;-86
2023/03/06 00:24:41;;;;;;;18.20;5.88;;;;;;;10.16;53.42;93554.47;5076866;28;20131;-86
2023/03/06 00:27:08;;;;;;;17.08;5.85;;;;;;;10.48;53.38;93564.50;5076833;28;20047;-86
2023/03/06 00:29:34;;;;;;;14.88;6.70;;;;;;;10.14;54.41;93577.53;5076691;28;20032;-86
2023/03/06 00:32:00;;;;;;;17.38;6.18;;;;;;;10.00;55.35;93572.22;5076748;28;20487;-87
2023/03/06 00:34:25;;;;;;;12.93;6.15;;;;;;;10.01;55.47;93575.63;5076807;28;20107;-87
2023/03/06 00:36:51;;;;;;;18.15;5.40;;;;;;;10.18;54.80;93573.28;5076853;28;20028;-86
2023/03/06 00:39:17;;;;;;;17.27;5.72;;;;;;;10.20;54.76;93580.84;5076457;28;20032;-86
2023/03/06 00:41:42;;;;;;;14.85;5.45;;;;;;;9.95;55.56;93564.44;5075537;28;20430;-87
2023/03/06 00:44:07;;;;;;;16.52;6.30;;;;;;;10.10;55.42;93575.75;5060481;28;20077;-86
2023/03/06 00:46:33;;;;;;;14.57;5.30;;;;;;;10.01;55.86;93568.53;5076429;28;20081;-86
2023/03/06 00:48:58;;;;;;;15.98;6.18;;;;;;;10.38;54.83;93578.50;5076430;28;20495;-86
2023/03/06 00:51:24;;;;;;;12.40;5.40;;;;;;;10.79;54.07;93567.41;5076348;28;20031;-86
2023/03/06 00:53:49;;;;;;;13.00;5.00;;;;;;;10.37;54.70;93563.84;5076200;28;20028;-86
2023/03/06 00:56:15;;;;;;;11.00;4.43;;;;;;;10.70;54.25;93571.75;5076270;28;20039;-86
2023/03/06 00:58:40;;;;;;;14.48;5.63;;;;;;;10.93;53.36;93566.66;5077138;28;20029;-86
2023/03/06 01:01:06;;;;;;;15.60;4.13;;;;;;;10.49;54.33;93560.81;5075955;28;20025;-86
2023/03/06 01:03:31;;;;;;;15.80;5.13;;;;;;;10.31;54.75;93555.31;5076165;28;20028;-86
2023/03/06 01:05:57;;;;;;;11.10;4.88;;;;;;;10.59;54.27;93547.56;5076219;28;20025;-86
2023/03/06 01:08:22;;;;;;;10.50;4.35;;;;;;;10.06;55.92;93548.59;5077373;28;20035;-86
2023/03/06 01:10:48;;;;;;;11.65;4.72;;;;;;;10.39;55.96;93543.41;5076028;28;20029;-86
2023/03/06 01:13:13;;;;;;;11.40;4.68;;;;;;;10.13;56.44;93543.78;5075913;28;20426;-86
2023/03/06 01:15:39;;;;;;;10.02;4.38;;;;;;;10.56;55.26;93543.66;5075928;28;20025;-86
2023/03/06 01:18:04;;;;;;;10.18;3.83;;;;;;;10.98;53.54;93546.41;5076150;28;20024;-86
2023/03/06 01:20:30;;;;;;;10.85;4.40;;;;;;;10.35;55.09;93540.56;5075696;28;20035;-86
2023/03/06 01:22:55;;;;;;;10.05;4.40;;;;;;;10.47;55.24;93542.75;5075767;28;20028;-86
2023/03/06 01:25:22;;;;;;;12.00;4.60;;;;;;;10.19;56.15;93532.19;5058916;28;20453;-86
2023/03/06 01:27:48;;;;;;;11.40;4.43;;;;;;;10.14;56.48;93537.47;5075725;28;20031;-86
2023/03/06 01:30:14;;;;;;;11.13;5.32;;;;;;;10.20;56.45;93528.50;5058824;28;20429;-86
2023/03/06 01:32:39;;;;;;;18.40;6.00;;;;;;;10.45;56.33;93535.22;5075581;28;20403;-86
2023/03/06 01:35:06;;;;;;;16.33;5.72;;;;;;;10.11;57.08;93525.72;5076798;28;20050;-86
2023/03/06 01:37:31;;;;;;;14.95;6.05;;;;;;;10.21;57.57;93521.41;5075584;28;20024;-86
2023/03/06 01:39:57;;;;;;;17.85;6.07;;;;;;;10.09;57.17;93521.84;5075316;28;20032;-86
2023/03/06 01:42:22;;;;;;;15.40;5.93;;;;;;;10.10;57.25;93513.69;5075601;28;20029;-86
2023/03/06 01:45:08;;;;;;;18.25;6.28;;;;;;;10.76;56.38;93518.22;5058887;28;20029;-86
2023/03/06 01:47:36;;;;;;;16.35;6.65;;;;;;;10.56;55.33;93516.72;5075702;28;20032;-86
2023/03/06 01:50:04;;;;;;;18.98;5.88;;;;;;;10.31;55.80;93508.94;5058786;28;20072;-86
2023/03/06 01:52:33;;;;;;;21.23;6.47;;;;;;;10.59;54.24;93516.91;5058636;28;20422;-86
2023/03/06 01:55:08;;;;;;;16.40;5.72;;;;;;;10.50;54.90;93510.00;5075481;28;20028;-86
2023/03/06 01:57:48;;;;;;;14.30;5.72;;;;;;;10.56;54.18;93512.25;5075325;28;20111;-86
2023/03/06 02:00:17;;;;;;;19.55;5.95;;;;;;;10.61;53.85;93506.16;5058808;28;20403;-86
2023/03/06 02:02:46;;;;;;;13.73;5.53;;;;;;;11.13;50.79;93510.47;5075247;28;20033;-86
2023/03/06 02:05:12;;;;;;;14.95;5.82;;;;;;;11.56;50.09;93504.91;5075186;28;20029;-86
2023/03/06 02:07:41;;;;;;;13.77;5.00;;;;;;;11.37;50.71;93504.25;5075568;28;20335;-86
2023/03/06 02:10:20;;;;;;;17.08;5.85;;;;;;;10.54;51.48;93497.88;5075277;28;20437;-86
2023/03/06 02:12:46;;;;;;;15.13;5.50;;;;;;;10.81;51.13;93494.53;5075280;28;20071;-86
2023/03/06 02:15:14;;;;;;;14.18;5.60;;;;;;;11.16;50.00;93497.56;5058606;28;20029;-86
2023/03/06 02:17:42;;;;;;;15.95;5.63;;;;;;;10.87;49.67;93493.38;5069178;28;20032;-85
2023/03/06 02:20:19;;;;;;;20.85;5.35;;;;;;;11.14;48.73;93491.06;5055076;28;20460;-86
2023/03/06 02:22:51;;;;;;;14.90;5.45;;;;;;;10.63;49.53;93484.91;5059984;28;20178;-85
2023/03/06 02:25:32;;;;;;;13.52;4.97;;;;;;;10.89;49.01;93482.59;5063397;28;20032;-86
2023/03/06 02:27:58;;;;;;;15.90;5.72;;;;;;;10.71;48.83;93489.47;5070279;28;20042;-85
2023/03/06 02:30:25;;;;;;;18.98;6.15;;;;;;;10.79;49.39;93482.78;5049940;28;20032;-85
2023/03/06 02:32:51;;;;;;;17.95;5.88;;;;;;;10.41;50.14;93487.09;5072437;28;20445;-85
2023/03/06 02:35:19;;;;;;;11.43;4.78;;;;;;;10.99;48.70;93482.41;5075075;28;20028;-85
2023/03/06 02:37:45;;;;;;;10.70;5.40;;;;;;;11.03;48.55;93479.97;5058448;28;20024;-85
2023/03/06 02:40:11;;;;;;;16.70;5.60;;;;;;;10.91;48.28;93475.22;5058422;28;20029;-85
2023/03/06 02:42:37;;;;;;;14.95;5.78;;;;;;;10.91;48.49;93485.72;5074979;28;20052;-85
2023/03/06 02:45:04;;;;;;;15.57;5.43;;;;;;;11.39;48.18;93483.75;5058362;28;20075;-86
2023/03/06 02:47:29;;;;;;;16.70;6.40;;;;;;;10.62;50.52;93473.66;5058319;28;20379;-85
2023/03/06 02:49:55;;;;;;;16.38;6.20;;;;;;;10.79;49.63;93470.47;5073486;28;20032;-86
2023/03/06 02:52:20;;;;;;;17.70;6.20;;;;;;;10.73;49.58;93469.00;5056919;28;20033;-86
2023/03/06 02:54:46;;;;;;;21.17;6.75;;;;;;;10.68;49.96;93469.09;5074867;28;20028;-86
2023/03/06 02:57:11;;;;;;;15.77;6.10;;;;;;;10.49;50.33;93469.94;5074897;28;20031;-86
2023/03/06 02:59:37;;;;;;;14.48;6.32;;;;;;;10.50;50.67;93461.03;5075727;28;20040;-85
2023/03/06 03:02:02;;;;;;;14.00;6.10;;;;;;;10.47;50.98;93458.97;5074786;28;20078;-85
2023/03/06 03:04:27;;;;;;;24.60;6.15;;;;;;;10.84;50.35;93456.50;5076569;28;20115;-85
2023/03/06 03:06:53;;;;;;;15.00;6.43;;;;;;;10.86;49.97;93454.38;5078344;28;20410;-86
2023/03/06 03:09:18;;;;;;;16.88;6.22;;;;;;;10.88;50.19;93463.47;5061675;28;20119;-86
2023/03/06 03:11:44;;;;;;;19.98;6.50;;;;;;;11.12;49.46;93453.88;5061864;28;20024;-86
2023/03/06 03:14:09;;;;;;;14.73;6.55;;;;;;;10.60;50.96;93455.59;5078216;28;20389;-85
2023/03/06 03:16:35;;;;;;;19.55;6.32;;;;;;;10.58;51.03;93449.88;5078235;28;20349;-85
2023/03/06 03:19:00;;;;;;;21.80;7.50;;;;;;;10.57;51.29;93450.94;5077958;28;20028;-85
2023/03/06 03:21:26;;;;;;;14.55;6.70;;;;;;;10.27;52.22;93455.59;5061620;28;20323;-86
2023/03/06 03:23:51;;;;;;;17.75;6.28;;;;;;;10.17;52.92;93453.13;5079204;28;20025;-85
2023/03/06 03:26:19;;;;;;;18.80;6.78;;;;;;;10.90;51.37;93444.84;5079210;28;20050;-85
2023/03/06 03:28:45;;;;;;;14.82;6.60;;;;;;;10.73;51.82;93440.19;5077903;28;20459;-85
2023/03/06 03:31:11;;;;;;;22.92;7.40;;;;;;;10.37;52.43;93438.19;5061476;28;20166;-85
2023/03/06 03:33:38;;;;;;;25.63;8.20;;;;;;;10.56;51.59;93448.63;5077819;28;20032;-85
2023/03/06 03:36:04;;;;;;;20.58;6.45;;;;;;;10.78;51.28;93441.94;5077900;28;20311;-85
2023/03/06 03:38:30;;;;;;;13.65;5.68;;;;;;;10.49;51.31;93432.50;5077667;28;20372;-86
2023/03/06 03:40:56;;;;;;;13.23;5.93;;;;;;;10.52;51.19;93442.38;5061208;28;20029;-85
2023/03/06 03:43:21;;;;;;;16.88;5.85;;;;;;;10.53;51.28;93441.31;5077683;28;20051;-85
2023/03/06 03:45:47;;;;;;;28.10;6.30;;;;;;;10.80;50.41;93440.59;5060803;28;20040;-85
2023/03/06 03:48:12;;;;;;;18.15;6.00;;;;;;;10.67;50.64;93436.88;5077486;28;20036;-86
2023/03/06 03:50:38;;;;;;;21.67;6.38;;;;;;;11.23;49.39;93436.09;5077555;28;20346;-86
2023/03/06 03:53:03;;;;;;;17.40;5.70;;;;;;;11.14;49.17;93441.25;5077469;28;20036;-86
2023/03/06 03:55:29;;;;;;;14.20;5.20;;;;;;;10.78;49.99;93437.47;5077483;28;20104;-86
2023/03/06 03:57:54;;;;;;;14.23;5.25;;;;;;;11.41;48.79;93439.66;5057262;28;20140;-86
2023/03/06 04:00:20;;;;;;;15.02;5.30;;;;;;;11.31;48.66;93438.78;5057353;28;20059;-86
2023/03/06 04:02:46;;;;;;;13.73;5.05;;;;;;;11.68;48.18;93432.75;5057604;28;20029;-86
2023/03/06 04:05:13;;;;;;;14.98;5.38;;;;;;;11.10;49.30;93430.56;5057234;28;20418;-86
2023/03/06 04:07:39;;;;;;;17.92;5.53;;;;;;;11.68;48.64;93424.91;5073782;28;20320;-86
2023/03/06 04:10:06;;;;;;;15.73;5.90;;;;;;;11.11;50.61;93419.00;5073740;28;20036;-86
2023/03/06 04:12:32;;;;;;;14.77;5.28;;;;;;;10.49;51.71;93416.78;5055065;28;20036;-86
2023/03/06 04:14:58;;;;;;;12.45;4.97;;;;;;;10.82;51.59;93420.09;5065846;28;20025;-86
2023/03/06 04:17:23;;;;;;;13.75;4.97;;;;;;;10.87;51.71;93420.00;5055975;28;20021;-86
2023/03/06 04:19:49;;;;;;;10.55;5.00;;;;;;;11.65;49.98;93430.75;5058957;28;20029;-86
2023/03/06 04:22:14;;;;;;;17.58;6.10;;;;;;;10.95;51.15;93417.78;5060255;28;20024;-86
2023/03/06 04:24:40;;;;;;;12.25;5.78;;;;;;;10.84;51.87;93409.34;5059973;28;20033;-86
2023/03/06 04:27:05;;;;;;;11.35;4.90;;;;;;;10.71;52.16;93414.28;5077038;28;20036;-86
2023/03/06 04:29:30;;;;;;;13.23;5.18;;;;;;;11.27;51.71;93416.06;5077879;28;20024;-86
2023/03/06 04:31:56;;;;;;;14.25;5.55;;;;;;;10.86;51.41;93412.44;5060307;28;20025;-86
2023/03/06 04:34:21;;;;;;;16.75;5.82;;;;;;;11.46;50.18;93421.94;5076695;28;20027;-86
2023/03/06 04:36:47;;;;;;;14.77;5.22;;;;;;;11.29;51.30;93400.81;5076575;28;20043;-86
2023/03/06 04:39:13;;;;;;;11.13;4.55;;;;;;;11.05;52.08;93409.72;5076725;28;20095;-86
2023/03/06 04:41:39;;;;;;;16.30;4.90;;;;;;;11.20;51.18;93408.59;5059875;28;20027;-86
2023/03/06 04:44:06;;;;;;;11.35;5.13;;;;;;;10.68;52.82;93400.97;5060149;28;20060;-86
2023/03/06 04:46:31;;;;;;;15.27;4.20;;;;;;;10.95;52.71;93405.44;5056200;28;20025;-86
2023/03/06 04:48:56;;;;;;;13.75;4.95;;;;;;;10.92;53.22;93413.88;5056379;28;20025;-86
2023/03/06 04:51:22;;;;;;;11.75;5.00;;;;;;;10.72;53.61;93418.47;5039877;28;20078;-86
2023/03/06 04:53:48;;;;;;;9.50;4.15;;;;;;;10.38;54.90;93408.31;5056354;28;20405;-86
2023/03/06 04:56:13;;;;;;;10.95;4.25;;;;;;;10.82;54.07;93411.44;5039698;28;20381;-86
2023/03/06 04:58:39;;;;;;;11.60;4.45;;;;;;;10.15;56.29;93389.84;5039418;28;20032;-86
2023/03/06 05:01:04;;;;;;;10.32;4.35;;;;;;;10.42;55.91;93404.84;5039559;28;20132;-86
2023/03/06 05:03:30;;;;;;;11.20;4.30;;;;;;;10.10;56.13;93397.78;5039247;28;20044;-86
2023/03/06 05:05:55;;;;;;;11.63;4.00;;;;;;;10.90;54.33;93397.69;5056179;28;20033;-86
2023/03/06 05:08:22;;;;;;;7.15;4.03;;;;;;;10.79;54.44;93402.34;5055951;28;20059;-85
2023/03/06 05:10:58;;;;;;;11.45;3.78;;;;;;;11.45;52.98;93401.28;5066050;28;20111;-86
2023/03/06 05:13:24;;;;;;;9.32;3.40;;;;;;;11.15;54.52;93390.38;5076046;28;20035;-85
2023/03/06 05:15:49;;;;;;;7.88;3.13;;;;;;;11.50;53.35;93382.03;5076205;28;20315;-86
2023/03/06 05:18:15;;;;;;;7.82;2.97;;;;;;;11.27;53.67;93385.41;5075731;28;20028;-86
2023/03/06 05:20:41;;;;;;;7.90;3.55;;;;;;;11.18;54.62;93392.41;5059407;28;20028;-86
2023/03/06 05:23:06;;;;;;;7.80;3.28;;;;;;;10.83;54.79;93392.81;5075785;28;20025;-85
2023/03/06 05:25:32;;;;;;;9.45;3.70;;;;;;;10.83;55.27;93387.59;5076841;28;20033;-86
2023/03/06 05:27:57;;;;;;;10.48;3.22;;;;;;;10.55;55.68;93387.59;5058673;28;20067;-86
2023/03/06 05:30:23;;;;;;;8.70;4.07;;;;;;;11.32;54.04;93392.34;5076695;28;20029;-86
2023/03/06 05:32:49;;;;;;;8.95;3.60;;;;;;;11.13;54.35;93392.53;5076811;28;20062;-86
2023/03/06 05:35:17;;;;;;;10.30;3.08;;;;;;;11.17;55.31;93396.84;5075703;28;20021;-86
2023/03/06 05:37:43;;;;;;;7.40;3.08;;;;;;;11.53;54.41;93397.94;5075586;28;20024;-85
2023/03/06 05:40:10;;;;;;;5.22;2.95;;;;;;;11.31;55.13;93394.22;5075517;28;20032;-86
2023/03/06 05:42:35;;;;;;;8.35;3.08;;;;;;;11.42;54.23;93397.38;5074161;28;20109;-86
2023/03/06 05:45:01;;;;;;;6.78;3.70;;;;;;;11.53;54.28;93397.94;5058745;28;20041;-86
2023/03/06 05:47:27;;;;;;;6.25;3.10;;;;;;;11.77;53.97;93396.88;5064198;28;20036;-86
2023/03/06 05:49:52;;;;;;;9.07;4.00;;;;;;;11.36;55.39;93388.09;5064177;28;20032;-87
2023/03/06 05:52:17;;;;;;;9.15;3.28;;;;;;;11.61;54.55;93399.06;5056002;28;20087;-87
2023/03/06 05:54:43;;;;;;;12.23;3.40;;;;;;;11.62;54.70;93405.09;5055825;28;20028;-87
2023/03/06 05:57:08;;;;;;;12.20;3.22;;;;;;;11.46;55.48;93406.22;5055736;28;20029;-87
2023/03/06 05:59:34;;;;;;;10.13;3.53;;;;;;;11.41;55.55;93403.72;5055334;28;20029;-86
2023/03/06 06:02:02;;;;;;;7.22;3.08;;;;;;;11.60;55.40;93410.63;5055350;28;20029;-87
2023/03/06 06:04:28;;;;;;;9.48;3.50;;;;;;;11.26;56.26;93406.66;5046904;28;20044;-87
2023/03/06 06:06:58;;;;;;;10.50;3.28;;;;;;;11.16;57.39;93397.94;5075569;28;20055;-88
2023/03/06 06:09:25;;;;;;;7.07;3.15;;;;;;;11.48;56.61;93408.53;5075326;28;20032;-87
2023/03/06 06:11:52;;;;;;;9.25;3.25;;;;;;;12.00;55.46;93408.16;5059034;28;20035;-86
2023/03/06 06:14:18;;;;;;;10.77;3.03;;;;;;;12.06;54.97;93408.84;5075219;28;20020;-86
2023/03/06 06:16:43;;;;;;;8.85;3.00;;;;;;;11.84;55.14;93405.13;5075164;28;20101;-87
2023/03/06 06:19:09;;;;;;;8.13;3.45;;;;;;;12.05;54.47;93406.50;5076468;28;20079;-86
2023/03/06 06:21:34;;;;;;;5.70;2.95;;;;;;;12.35;53.36;93417.34;5075189;28;20028;-86
2023/03/06 06:24:00;;;;;;;11.18;3.05;;;;;;;12.11;53.30;93408.69;5075036;28;20392;-87
2023/03/06 06:26:25;;;;;;;7.45;3.15;;;;;;;12.32;53.68;93418.72;5075344;28;20032;-85
2023/03/06 06:28:50;;;;;;;7.05;2.72;;;;;;;12.38;53.10;93420.13;5076130;28;20086;-84
2023/03/06 06:31:16;;;;;;;4.53;2.45;;;;;;;12.37;53.33;93418.56;5058293;28;20032;-85
2023/03/06 06:33:41;;;;;;;8.55;2.60;;;;;;;12.27;53.31;93410.97;5074970;28;20024;-84
2023/03/06 06:36:18;;;;;;;8.23;2.75;;;;;;;12.04;54.85;93404.94;5076114;28;20456;-85
2023/03/06 06:38:43;;;;;;;4.40;2.40;;;;;;;11.56;57.12;93413.09;5059550;28;20040;-84
2023/03/06 06:41:09;;;;;;;4.03;1.90;;;;;;;11.00;57.57;93404.56;5062405;28;20036;-84
2023/03/06 06:43:34;;;;;;;4.07;1.90;;;;;;;12.17;55.40;93414.59;5078784;28;20446;-84
2023/03/06 06:46:01;;;;;;;4.32;1.92;;;;;;;12.64;54.32;93411.59;5078826;28;20037;-85
2023/03/06 06:48:27;;;;;;;6.13;1.63;;;;;;;12.34;54.03;93413.94;5068762;28;20115;-85
2023/03/06 06:50:56;;;;;;;3.28;1.10;;;;;;;11.57;56.79;93419.09;5061737;28;20153;-85
2023/03/06 06:53:22;;;;;;;9.65;1.60;;;;;;;12.06;56.11;93418.56;5069537;28;20028;-86
2023/03/06 06:55:47;;;;;;;2.22;1.50;;;;;;;12.42;55.04;93420.31;5078569;28;20026;-85
2023/03/06 06:58:13;;;;;;;2.45;1.23;;;;;;;12.04;55.76;93418.88;5061863;28;20043;-85
2023/03/06 07:00:38;;;;;;;2.85;1.30;;;;;;;11.92;56.22;93418.59;5061950;28;20345;-85
2023/03/06 07:03:03;;;;;;;2.70;1.85;;;;;;;11.66;57.08;93416.56;5078490;28;20028;-85
2023/03/06 07:05:29;;;;;;;4.68;1.80;;;;;;;11.43;57.30;93425.16;5078318;28;20047;-85
2023/03/06 07:07:54;;;;;;;5.03;2.30;;;;;;;11.02;58.27;93413.69;5078170;28;20464;-87
2023/03/06 07:10:20;;;;;;;5.13;2.35;;;;;;;11.23;58.21;93417.75;5079572;28;20024;-85
2023/03/06 07:12:46;;;;;;;3.65;2.10;;;;;;;11.21;57.49;93415.41;5078285;28;20111;-84
2023/03/06 07:15:13;;;;;;;5.03;1.83;;;;;;;12.05;55.84;93414.38;5078258;28;20027;-84
2023/03/06 07:17:39;;;;;;;2.83;1.70;;;;;;;11.53;56.61;93412.91;5061621;28;20025;-84
2023/03/06 07:20:05;;;;;;;4.00;1.95;;;;;;;11.87;55.92;93411.63;5078079;28;20102;-84
2023/03/06 07:22:32;;;;;;;5.50;2.17;;;;;;;12.16;54.68;93419.09;5061761;28;20035;-85
2023/03/06 07:24:57;;;;;;;5.68;1.98;;;;;;;12.81;54.06;93410.91;5078058;28;20031;-85
2023/03/06 07:27:24;;;;;;;3.03;1.75;;;;;;;12.80;54.32;93414.59;5056146;28;20032;-85
2023/03/06 07:29:50;;;;;;;5.82;1.90;;;;;;;13.03;54.39;93416.38;5059035;28;20120;-84
2023/03/06 07:32:16;;;;;;;6.95;2.08;;;;;;;13.07;53.98;93418.09;5041319;28;20174;-85
2023/03/06 07:34:43;;;;;;;2.67;1.63;;;;;;;12.62;55.32;93405.09;5057894;28;20025;-84
2023/03/06 07:37:09;;;;;;;4.47;2.03;;;;;;;12.56;55.03;93413.13;5057830;28;20170;-85
2023/03/06 07:39:34;;;;;;;5.22;2.30;;;;;;;12.92;55.07;93418.50;5041534;28;20044;-85
2023/03/06 07:42:00;;;;;;;7.13;2.22;;;;;;;13.22;54.60;93413.47;5057701;28;20366;-85
2023/03/06 07:44:25;;;;;;;6.13;2.42;;;;;;;12.91;54.08;93416.94;5058639;28;20043;-85
2023/03/06 07:46:51;;;;;;;4.30;2.65;;;;;;;13.45;52.12;93414.16;5057554;28;20075;-85
2023/03/06 07:49:16;;;;;;;7.85;2.47;;;;;;;13.00;54.28;93413.28;5057965;28;20036;-85
2023/03/06 07:51:42;;;;;;;5.65;2.42;;;;;;;13.34;53.39;93404.97;5058092;28;20029;-85
2023/03/06 07:54:07;;;;;;;3.95;2.17;;;;;;;13.24;53.43;93406.06;5057412;28;20024;-85
2023/03/06 07:56:35;;;;;;;5.38;2.40;;;;;;;13.57;52.48;93403.78;5041029;28;20052;-84
2023/03/06 07:59:01;;;;;;;8.00;2.25;;;;;;;13.95;52.97;93404.22;5057312;28;20033;-85
2023/03/06 08:01:27;;;;;;;5.35;2.20;;;;;;;13.83;51.27;93403.00;5057373;28;20036;-85
2023/03/06 08:03:53;;;;;;;6.45;2.28;;;;;;;14.22;50.89;93410.22;5040541;28;20021;-85
2023/03/06 08:06:24;;;;;;;5.15;2.17;;;;;;;14.30;49.91;93404.19;5057265;28;20354;-85
2023/03/06 08:08:51;;;;;;;4.93;2.38;;;;;;;14.73;50.99;93404.38;5057137;28;20028;-85
2023/03/06 08:11:18;;;;;;;3.80;2.08;;;;;;;14.90;48.98;93409.56;5057178;28;20442;-84
2023/03/06 08:13:44;;;;;;;4.72;2.00;;;;;;;14.93;48.99;93416.84;5057719;28;20061;-85
2023/03/06 08:16:10;;;;;;;3.22;1.83;;;;;;;14.94;50.04;93407.84;5057294;28;20465;-85
2023/03/06 08:18:38;;;;;;;4.60;1.90;;;;;;;14.59;51.96;93412.44;5057274;28;20037;-85
2023/03/06 08:21:04;;;;;;;4.30;2.03;;;;;;;14.93;51.40;93410.81;5057010;28;20043;-85
2023/03/06 08:23:30;;;;;;;5.10;1.95;;;;;;;15.18;50.39;93410.97;5056912;28;20055;-85
2023/03/06 08:25:58;;;;;;;3.58;1.73;;;;;;;15.61;48.80;93423.09;5039189;28;20029;-84
2023/03/06 08:28:23;;;;;;;4.68;1.80;;;;;;;15.32;50.62;93421.31;5056554;28;20434;-85
2023/03/06 08:30:49;;;;;;;3.25;1.75;;;;;;;15.80;49.99;93424.53;5056521;28;20032;-85
2023/03/06 08:33:14;;;;;;;4.57;2.17;;;;;;;15.48;48.98;93434.69;5077911;28;20111;-85
2023/03/06 08:35:40;;;;;;;3.63;1.73;;;;;;;15.48;47.50;93437.34;5060239;28;20043;-85
2023/03/06 08:38:05;;;;;;;4.40;2.28;;;;;;;15.76;46.61;93434.97;5076829;28;20504;-85
2023/03/06 08:40:30;;;;;;;5.45;1.90;;;;;;;16.23;46.29;93431.34;5077512;28;20028;-85
2023/03/06 08:42:56;;;;;;;6.43;1.50;;;;;;;15.84;48.45;93438.63;5076532;28;20051;-85
2023/03/06 08:45:21;;;;;;;3.15;1.60;;;;;;;14.60;48.82;93435.09;5077572;28;20040;-85
2023/03/06 08:47:47;;;;;;;1.63;1.08;;;;;;;14.08;49.64;93447.28;5059721;28;20040;-85
2023/03/06 08:50:12;;;;;;;0.63;0.50;;;;;;;14.47;49.70;93426.28;5077247;28;20032;-85
2023/03/06 08:52:38;;;;;;;1.42;0.70;;;;;;;14.03;50.18;93424.53;5075629;28;20039;-85
2023/03/06 08:55:04;;;;;;;2.42;0.60;;;;;;;13.69;50.89;93426.06;5077504;28;20028;-85
2023/03/06 08:57:29;;;;;;;1.75;0.55;;;;;;;14.08;50.21;93423.59;5077422;28;20032;-85
2023/03/06 08:59:55;;;;;;;1.17;0.50;;;;;;;13.74;51.42;93431.19;5076835;28;20365;-84
2023/03/06 09:02:20;;;;;;;2.17;0.63;;;;;;;12.36;53.76;93430.16;5075255;28;20028;-84
2023/03/06 09:04:46;;;;;;;2.63;0.80;;;;;;;12.57;53.51;93435.69;5076038;28;20338;-85
2023/03/06 09:07:11;;;;;;;5.07;1.05;;;;;;;12.64;53.19;93424.72;5076083;28;20024;-84
2023/03/06 09:09:38;;;;;;;1.55;0.75;;;;;;;13.54;51.00;93425.44;5075777;28;20143;-84
2023/03/06 09:12:04;;;;;;;1.80;0.93;;;;;;;13.66;51.21;93431.97;5059820;28;20115;-85
2023/03/06 09:14:31;;;;;;;4.72;1.40;;;;;;;13.70;50.28;93425.78;5075915;28;20058;-85
2023/03/06 09:16:56;;;;;;;3.65;1.30;;;;;;;13.28;50.74;93428.81;5075867;28;20342;-85
2023/03/06 09:19:22;;;;;;;3.42;1.38;;;;;;;14.20;49.04;93429.00;5075432;28;20038;-85
2023/03/06 09:21:48;;;;;;;4.10;1.08;;;;;;;14.12;49.59;93420.00;5075929;28;20111;-85
2023/03/06 09:24:13;;;;;;;4.72;1.30;;;;;;;14.75;48.34;93426.69;5075881;28;20036;-84
2023/03/06 09:26:39;;;;;;;2.08;1.20;;;;;;;14.46;48.33;93428.16;5075939;28;20430;-84
2023/03/06 09:29:04;;;;;;;3.88;1.30;;;;;;;13.74;50.17;93420.66;5075562;28;20040;-84
2023/03/06 09:31:30;;;;;;;5.57;1.30;;;;;;;13.58;50.38;93425.59;5076896;28;20032;-84
2023/03/06 09:33:56;;;;;;;3.00;1.40;;;;;;;13.90;49.15;93423.59;5075683;28;20434;-84
2023/03/06 09:36:22;;;;;;;3.97;1.58;;;;;;;13.51;50.41;93425.31;5075669;28;20099;-84
2023/03/06 09:38:48;;;;;;;4.05;1.65;;;;;;;14.26;49.11;93432.22;5075429;28;20064;-84
2023/03/06 09:41:30;;;;;;;4.90;0.98;;;;;;;14.22;48.43;93426.81;5059214;28;20116;-84
2023/03/06 09:44:13;;;;;;;1.88;1.10;;;;;;;14.45;49.38;93442.41;5075440;28;20020;-85
2023/03/06 09:46:53;;;;;;;2.20;0.68;;;;;;;15.44;47.83;93433.78;5075806;28;20032;-85
2023/03/06 09:49:48;;;;;;;1.85;0.90;;;;;;;15.43;47.62;93434.88;5056820;28;20119;-85
2023/03/06 09:52:51;;;;;;;2.05;0.93;;;;;;;14.70;48.83;93434.75;5065396;28;20041;-84
2023/03/06 09:55:29;;;;;;;1.27;0.85;;;;;;;14.81;46.76;93420.16;5056506;28;20037;-82
2023/03/06 09:58:22;;;;;;;1.05;0.75;;;;;;;14.63;46.80;93421.28;5057287;28;20048;-83
2023/03/06 10:01:08;;;;;;;1.40;0.80;;;;;;;14.69;47.30;93436.59;5067660;28;20029;-83
2023/03/06 10:03:38;;;;;;;3.60;1.10;;;;;;;14.11;47.71;93428.22;5055400;28;20029;-83
2023/03/06 10:06:24;;;;;;;2.63;0.98;;;;;;;15.15;45.95;93441.41;5073714;28;20037;-82
2023/03/06 10:08:58;;;;;;;2.13;0.90;;;;;;;14.05;47.52;93426.81;5075207;28;20387;-82
2023/03/06 10:11:30;;;;;;;1.70;1.13;;;;;;;14.28;48.09;93422.94;5076445;28;20033;-82
2023/03/06 10:14:09;;;;;;;2.33;1.10;;;;;;;15.36;45.58;93432.75;5078282;28;20028;-82
2023/03/06 10:16:34;;;;;;;7.30;1.38;;;;;;;14.81;45.07;93430.72;5079234;28;20028;-83
2023/03/06 10:19:20;;;;;;;3.75;1.17;;;;;;;15.47;44.42;93441.06;5079089;28;20036;-82
2023/03/06 10:22:10;;;;;;;6.07;1.42;;;;;;;15.18;45.06;93438.13;5078950;28;20356;-82
2023/03/06 10:24:56;;;;;;;3.28;1.50;;;;;;;14.15;46.08;93431.78;5080247;28;20118;-82
2023/03/06 10:27:40;;;;;;;2.80;1.50;;;;;;;14.41;46.72;93423.81;5079122;28;20430;-82
2023/03/06 10:30:43;;;;;;;4.00;1.60;;;;;;;14.44;45.96;93434.84;5080193;28;20400;-82
2023/03/06 10:33:15;;;;;;;2.35;1.58;;;;;;;14.14;47.42;93435.50;5079292;28;20028;-82
2023/03/06 10:35:49;;;;;;;2.58;1.38;;;;;;;14.72;46.08;93432.59;5061089;28;20032;-82
2023/03/06 10:38:22;;;;;;;3.85;1.60;;;;;;;13.71;47.88;93427.31;5072738;28;20032;-83
2023/03/06 10:41:05;;;;;;;2.50;1.25;;;;;;;14.24;46.38;93427.28;5073951;28;20414;-83
2023/03/06 10:43:32;;;;;;;1.95;1.00;;;;;;;13.93;47.20;93428.25;5073663;28;20441;-83
2023/03/06 10:45:57;;;;;;;1.95;1.00;;;;;;;14.05;46.84;93430.25;5078552;28;20036;-83
2023/03/06 10:48:25;;;;;;;1.38;0.80;;;;;;;14.29;46.89;93426.34;5061327;28;20059;-83
2023/03/06 10:50:53;;;;;;;3.85;1.20;;;;;;;15.10;45.58;93431.81;5060831;28;20041;-83
2023/03/06 10:53:28;;;;;;;1.30;0.90;;;;;;;15.18;46.11;93417.03;5058925;28;20041;-83
2023/03/06 10:55:58;;;;;;;1.38;0.73;;;;;;;15.83;44.52;93423.91;5059632;28;20025;-83
2023/03/06 10:58:31;;;;;;;2.10;0.60;;;;;;;16.36;44.44;93415.53;5070227;28;20123;-83
2023/03/06 11:01:20;;;;;;;1.05;0.73;;;;;;;15.67;45.54;93413.91;5058451;28;20021;-83
2023/03/06 11:03:46;;;;;;;1.02;0.73;;;;;;;16.16;44.97;93420.53;5043735;28;20041;-83
2023/03/06 11:06:31;;;;;;;3.15;1.00;;;;;;;14.85;46.87;93409.75;5078076;28;20040;-83
2023/03/06 11:09:22;;;;;;;2.13;0.90;;;;;;;15.73;46.79;93419.00;5058877;28;20037;-83
2023/03/06 11:11:49;;;;;;;2.15;0.85;;;;;;;16.43;46.68;93428.97;5058218;28;20457;-83
2023/03/06 11:14:19;;;;;;;1.00;0.60;;;;;;;16.57;45.46;93422.59;5046123;28;20052;-83
2023/03/06 11:16:52;;;;;;;3.35;0.80;;;;;;;16.82;46.12;93423.41;5078113;28;20028;-82
2023/03/06 11:19:28;;;;;;;1.52;0.60;;;;;;;17.34;45.29;93422.00;5061026;28;20043;-83
2023/03/06 11:22:03;;;;;;;0.60;0.43;;;;;;;15.57;46.64;93422.22;5066308;28;20028;-82
2023/03/06 11:24:36;;;;;;;0.45;0.30;;;;;;;14.19;48.70;93413.50;5076757;28;20063;-82
2023/03/06 11:27:29;;;;;;;0.30;0.30;;;;;;;14.61;48.58;93426.09;5077362;28;20063;-82
2023/03/06 11:29:56;;;;;;;0.20;0.20;;;;;;;14.60;48.74;93421.91;5057242;28;20031;-83
2023/03/06 11:32:24;;;;;;;5.97;3.25;;;;;;;16.06;47.33;93415.63;5058849;28;20032;-83